Reserve, Indiana
Current Conditions -  °F | °C
As of 6:55 PM on Sunday 23 Nov 2014 (Local Time) from KPRG Reporting Station
Light Rain Light Rain  
Wind Chill: 52°   Ceiling: 300
Heat Index: 52°   Visibility: 5mi
Dew Point: 52°   Wind: 8mph
Humidity: 100%   Direction: 110°ESE
Pressure: 29.34"   Gusts: NA
Location:  39.8207°N, 87.3335°W
Report Text: KPRG 232355Z AUTO 11007KT 5SM -RA BKN003 BKN007 OVC013 11/11 A2934 RMK AO2 P0008 60025 T01120112 10112 20106
Loading
Personal Weather Stations






























Interactive Weather Map New forecast layout! Learn more

10-Day Weather Forecast

Advertisements
Track Severe Weather on mobile